Time;durP1;ratioP1;P1;durP2;ratioP2;P2;SDS_P1;SDS_P2;PMS_P1;PMS_P2;Temp;Humidity;BMP_temperature;BMP_pressure;BME280_temperature;BME280_humidity;BME280_pressure;Samples;Min_cycle;Max_cycle;Signal;HPM_P1;HPM_P2
2022/06/28 00:01:49;;;;;;;26.80;5.40;;;;;;;19.04;100.00;98393.69;5003872;28;20046;-53
2022/06/28 00:04:14;;;;;;;33.78;5.93;;;;;;;19.42;100.00;98399.88;5004967;28;20026;-53
2022/06/28 00:06:40;;;;;;;32.08;5.90;;;;;;;20.01;100.00;98391.22;5005160;28;20046;-53
2022/06/28 00:09:05;;;;;;;28.08;5.55;;;;;;;19.64;100.00;98389.44;5005495;28;20093;-54
2022/06/28 00:11:30;;;;;;;34.25;5.93;;;;;;;19.43;100.00;98402.41;5006330;28;20044;-53
2022/06/28 00:13:56;;;;;;;26.92;5.93;;;;;;;18.99;100.00;98414.28;5006005;28;20119;-53
2022/06/28 00:16:21;;;;;;;32.35;6.38;;;;;;;19.03;100.00;98412.28;5004611;28;20054;-53
2022/06/28 00:18:49;;;;;;;28.00;5.47;;;;;;;19.20;100.00;98416.41;5005106;28;20056;-53
2022/06/28 00:21:14;;;;;;;33.30;5.82;;;;;;;19.59;100.00;98403.94;5002881;28;20045;-53
2022/06/28 00:23:42;;;;;;;28.23;5.65;;;;;;;19.40;100.00;98402.63;5008569;28;20022;-53
2022/06/28 00:26:09;;;;;;;27.45;5.55;;;;;;;19.14;100.00;98401.81;5006286;28;20041;-53
2022/06/28 00:28:34;;;;;;;45.15;7.15;;;;;;;19.11;100.00;98395.88;5005889;28;20106;-55
2022/06/28 00:31:01;;;;;;;28.30;5.70;;;;;;;19.07;100.00;98390.81;5004760;28;20045;-53
2022/06/28 00:33:26;;;;;;;31.98;5.80;;;;;;;19.48;100.00;98398.59;5003021;28;20034;-53
2022/06/28 00:35:52;;;;;;;25.05;5.18;;;;;;;19.24;100.00;98386.13;5008540;28;20048;-54
2022/06/28 00:38:17;;;;;;;33.08;6.55;;;;;;;18.99;100.00;98390.50;5004444;28;20207;-53
2022/06/28 00:40:49;;;;;;;31.08;6.25;;;;;;;18.69;100.00;98404.84;5003604;28;20038;-52
2022/06/28 00:43:15;;;;;;;34.93;6.33;;;;;;;18.61;100.00;98409.78;5004672;28;20034;-53
2022/06/28 00:45:43;;;;;;;31.15;6.15;;;;;;;18.97;100.00;98408.28;5005377;28;20045;-53
2022/06/28 00:48:10;;;;;;;32.83;6.50;;;;;;;18.80;100.00;98408.53;5006240;28;20026;-53
2022/06/28 00:50:37;;;;;;;34.08;6.30;;;;;;;18.35;100.00;98408.06;5004134;28;20170;-53
2022/06/28 00:53:06;;;;;;;27.42;6.10;;;;;;;18.69;100.00;98410.13;5001978;28;20511;-53
2022/06/28 00:55:33;;;;;;;32.33;6.70;;;;;;;18.40;100.00;98416.53;5004906;28;20045;-52
2022/06/28 00:57:59;;;;;;;34.75;7.45;;;;;;;18.36;100.00;98430.84;5006955;28;20021;-53
2022/06/28 01:00:24;;;;;;;33.33;6.95;;;;;;;18.34;100.00;98422.19;5002461;28;20025;-53
2022/06/28 01:02:50;;;;;;;33.75;7.25;;;;;;;18.41;100.00;98428.75;5005851;28;20079;-52
2022/06/28 01:05:16;;;;;;;27.65;6.13;;;;;;;18.42;100.00;98435.75;5004970;28;20077;-54
2022/06/28 01:07:41;;;;;;;38.45;7.38;;;;;;;17.88;100.00;98437.44;5007562;28;20644;-55
2022/06/28 01:10:08;;;;;;;44.67;8.15;;;;;;;18.00;100.00;98446.38;5004206;28;20036;-55
2022/06/28 01:12:33;;;;;;;31.50;6.40;;;;;;;17.99;100.00;98457.00;5004831;28;20050;-53
2022/06/28 01:14:59;;;;;;;27.25;6.63;;;;;;;17.85;100.00;98463.19;5004801;28;20180;-55
2022/06/28 01:17:25;;;;;;;30.85;6.82;;;;;;;17.97;100.00;98477.38;5003374;28;20103;-53
2022/06/28 01:19:51;;;;;;;32.67;7.15;;;;;;;17.84;100.00;98482.56;5005536;28;20041;-53
2022/06/28 01:22:18;;;;;;;34.63;7.35;;;;;;;18.01;100.00;98473.59;5002330;28;20038;-53
2022/06/28 01:24:44;;;;;;;34.90;7.18;;;;;;;18.12;100.00;98473.75;5004138;28;20022;-52
2022/06/28 01:27:09;;;;;;;37.65;8.00;;;;;;;17.86;100.00;98480.69;5004103;28;20036;-53
2022/06/28 01:29:35;;;;;;;35.30;7.25;;;;;;;17.79;100.00;98493.41;5004803;28;20407;-54
2022/06/28 01:32:00;;;;;;;29.10;6.68;;;;;;;17.90;100.00;98493.63;5004425;28;20191;-53
2022/06/28 01:34:26;;;;;;;31.40;6.03;;;;;;;18.15;100.00;98492.03;5004281;28;20060;-53
2022/06/28 01:36:51;;;;;;;33.65;7.35;;;;;;;17.97;100.00;98495.84;5005436;28;20116;-53
2022/06/28 01:39:16;;;;;;;39.58;6.82;;;;;;;18.59;100.00;98488.28;5004509;28;20137;-52
2022/06/28 01:41:43;;;;;;;26.63;5.95;;;;;;;18.40;100.00;98474.63;5003817;28;20046;-54
2022/06/28 01:44:09;;;;;;;25.42;5.72;;;;;;;17.96;100.00;98484.47;5004170;28;20021;-53
2022/06/28 01:46:36;;;;;;;27.10;6.30;;;;;;;18.01;100.00;98490.31;5004570;28;20131;-52
2022/06/28 01:49:03;;;;;;;35.83;6.15;;;;;;;18.75;100.00;98479.34;5003875;28;20054;-52
2022/06/28 01:51:28;;;;;;;30.45;6.70;;;;;;;18.47;100.00;98470.59;5002109;28;20522;-54
2022/06/28 01:53:53;;;;;;;30.58;6.88;;;;;;;18.34;100.00;98469.72;5005479;28;20030;-53
2022/06/28 01:56:19;;;;;;;31.30;6.75;;;;;;;18.24;100.00;98467.69;5005589;28;20407;-53
2022/06/28 01:58:45;;;;;;;38.15;6.65;;;;;;;18.60;100.00;98463.59;5005876;28;20079;-54
2022/06/28 02:01:10;;;;;;;32.45;6.40;;;;;;;18.11;100.00;98461.50;5005556;28;20033;-53
2022/06/28 02:03:36;;;;;;;34.90;6.88;;;;;;;18.17;100.00;98468.19;5006281;28;20070;-52
2022/06/28 02:06:01;;;;;;;31.42;6.32;;;;;;;18.18;100.00;98465.44;5002802;28;20866;-55
2022/06/28 02:08:26;;;;;;;37.38;7.20;;;;;;;17.89;100.00;98480.50;5004691;28;20034;-54
2022/06/28 02:10:52;;;;;;;37.30;7.57;;;;;;;17.51;100.00;98497.75;5002659;28;20057;-53
2022/06/28 02:13:17;;;;;;;34.80;7.30;;;;;;;17.70;100.00;98497.47;5005405;28;20101;-55
2022/06/28 02:15:43;;;;;;;36.83;7.80;;;;;;;17.66;100.00;98495.09;5003502;28;20817;-52
2022/06/28 02:18:08;;;;;;;29.60;6.55;;;;;;;17.55;100.00;98490.50;5007404;28;20030;-54
2022/06/28 02:20:33;;;;;;;35.65;7.10;;;;;;;17.77;100.00;98500.56;5004438;28;20034;-52
2022/06/28 02:22:59;;;;;;;32.80;7.03;;;;;;;18.14;100.00;98490.38;5005338;28;20068;-52
2022/06/28 02:25:25;;;;;;;43.47;7.82;;;;;;;18.18;100.00;98489.22;5005690;28;20044;-53
2022/06/28 02:27:51;;;;;;;42.55;7.88;;;;;;;17.75;100.00;98494.53;5007988;28;20055;-54
2022/06/28 02:30:17;;;;;;;37.05;7.50;;;;;;;17.59;100.00;98491.16;5007493;28;20029;-55
2022/06/28 02:32:42;;;;;;;39.25;8.20;;;;;;;17.22;100.00;98496.03;5006640;28;20013;-54
2022/06/28 02:40:37;;;;;;;42.05;7.47;;;;;;;17.49;100.00;98483.81;5006631;28;20147;-54
2022/06/28 02:43:02;;;;;;;42.60;7.55;;;;;;;17.63;100.00;98485.59;5008169;28;20724;-55
2022/06/28 02:45:30;;;;;;;39.60;7.88;;;;;;;17.67;100.00;98480.97;5006128;28;20041;-53
2022/06/28 02:47:56;;;;;;;39.92;7.45;;;;;;;17.97;100.00;98477.38;5006180;28;20104;-52
2022/06/28 02:50:22;;;;;;;40.53;7.72;;;;;;;17.95;100.00;98463.44;5006470;28;20108;-52
2022/06/28 02:52:48;;;;;;;33.85;6.88;;;;;;;17.36;100.00;98471.47;5006461;28;20171;-53
2022/06/28 02:55:13;;;;;;;38.88;7.22;;;;;;;17.25;100.00;98475.59;5006401;28;20639;-54
2022/06/28 02:57:39;;;;;;;41.45;7.72;;;;;;;17.21;100.00;98470.63;5006092;28;20032;-53
2022/06/28 03:00:08;;;;;;;50.80;8.98;;;;;;;17.31;100.00;98474.38;5004570;28;20034;-53
2022/06/28 03:02:35;;;;;;;49.13;8.63;;;;;;;17.20;100.00;98476.81;5003392;28;20084;-53
2022/06/28 03:05:09;;;;;;;43.47;7.57;;;;;;;17.68;100.00;98462.44;5007170;28;20074;-53
2022/06/28 03:07:35;;;;;;;46.58;8.15;;;;;;;17.79;100.00;98468.81;5007594;28;20054;-53
2022/06/28 03:10:00;;;;;;;49.63;8.40;;;;;;;17.53;100.00;98453.69;5005302;28;20112;-53
2022/06/28 03:12:26;;;;;;;45.47;7.93;;;;;;;17.25;100.00;98466.88;5006612;28;20048;-53
2022/06/28 03:14:52;;;;;;;36.50;7.00;;;;;;;17.46;100.00;98475.22;5005183;28;20021;-52
2022/06/28 03:17:17;;;;;;;42.20;8.05;;;;;;;17.37;100.00;98483.72;5006072;28;20046;-54
2022/06/28 03:19:43;;;;;;;43.60;8.15;;;;;;;17.06;100.00;98481.16;5005479;28;20384;-53
2022/06/28 03:22:08;;;;;;;45.92;7.95;;;;;;;17.23;100.00;98488.03;5005389;28;20128;-52
2022/06/28 03:24:34;;;;;;;39.03;7.82;;;;;;;17.08;100.00;98486.34;5007044;28;20049;-53
2022/06/28 03:26:59;;;;;;;38.92;7.75;;;;;;;16.75;100.00;98488.19;5005139;28;20041;-52
2022/06/28 03:29:24;;;;;;;44.58;8.45;;;;;;;16.85;100.00;98482.41;5006771;28;20112;-52
2022/06/28 03:31:50;;;;;;;40.95;8.00;;;;;;;16.92;100.00;98478.47;5007012;28;20185;-53
2022/06/28 03:34:19;;;;;;;41.08;7.10;;;;;;;17.34;100.00;98468.94;5005515;28;20026;-55
2022/06/28 03:36:45;;;;;;;39.47;7.28;;;;;;;17.48;100.00;98455.75;5005747;28;20667;-52
2022/06/28 03:39:11;;;;;;;36.42;6.93;;;;;;;17.64;100.00;98454.78;5007409;28;20024;-53
2022/06/28 03:41:36;;;;;;;42.88;7.70;;;;;;;17.18;100.00;98476.06;5005728;28;20038;-52
2022/06/28 03:44:02;;;;;;;40.30;6.80;;;;;;;17.56;100.00;98478.16;5007735;28;20018;-52
2022/06/28 03:46:27;;;;;;;41.92;6.78;;;;;;;17.19;100.00;98475.16;5005304;28;20061;-52
2022/06/28 03:48:53;;;;;;;34.53;6.63;;;;;;;17.12;100.00;98479.94;5005502;28;20029;-52
2022/06/28 03:51:18;;;;;;;35.17;6.55;;;;;;;16.95;100.00;98479.16;5004353;28;20046;-51
2022/06/28 03:53:43;;;;;;;49.63;7.72;;;;;;;17.04;100.00;98480.41;5007187;28;20029;-52
2022/06/28 03:56:10;;;;;;;36.60;7.18;;;;;;;17.17;100.00;98477.00;5004506;28;20045;-54
2022/06/28 03:58:36;;;;;;;45.53;7.53;;;;;;;17.29;100.00;98478.91;5006100;28;20519;-52
2022/06/28 04:01:02;;;;;;;34.72;7.07;;;;;;;17.44;100.00;98475.34;5001618;28;20147;-53
2022/06/28 04:03:28;;;;;;;39.85;7.07;;;;;;;17.84;100.00;98464.91;5004618;28;20443;-52
2022/06/28 04:05:53;;;;;;;38.95;6.43;;;;;;;17.85;100.00;98474.59;5005806;28;20046;-53
2022/06/28 04:08:19;;;;;;;40.25;7.35;;;;;;;17.85;100.00;98479.84;5006880;28;20054;-52
2022/06/28 04:10:45;;;;;;;37.85;7.13;;;;;;;18.00;100.00;98482.47;5003035;28;20153;-52
2022/06/28 04:13:11;;;;;;;37.17;7.00;;;;;;;17.85;100.00;98484.28;5006024;28;20033;-53
2022/06/28 04:15:37;;;;;;;37.70;6.43;;;;;;;18.68;100.00;98484.22;5006218;28;20461;-53
2022/06/28 04:18:04;;;;;;;39.55;6.65;;;;;;;19.12;100.00;98476.91;5006589;28;20034;-52
2022/06/28 04:20:30;;;;;;;34.92;6.53;;;;;;;19.32;100.00;98463.16;5005684;28;20038;-52
2022/06/28 04:22:55;;;;;;;35.75;6.30;;;;;;;19.22;100.00;98467.38;5006093;28;20032;-52
2022/06/28 04:25:20;;;;;;;31.05;6.13;;;;;;;19.11;100.00;98475.19;5006631;28;20014;-53
2022/06/28 04:27:46;;;;;;;38.90;6.25;;;;;;;19.92;100.00;98464.22;5003950;28;20014;-53
2022/06/28 04:30:12;;;;;;;45.47;7.25;;;;;;;20.12;100.00;98468.09;5005163;28;20017;-53
2022/06/28 04:32:37;;;;;;;35.92;6.60;;;;;;;20.20;100.00;98465.75;5003261;28;20040;-54
2022/06/28 04:35:03;;;;;;;29.48;6.38;;;;;;;20.00;100.00;98474.28;5004684;28;20057;-54
2022/06/28 04:37:29;;;;;;;32.55;6.63;;;;;;;19.55;100.00;98465.97;5004084;28;20084;-53
2022/06/28 04:39:54;;;;;;;39.85;7.60;;;;;;;19.45;100.00;98469.28;5004188;28;20029;-52
2022/06/28 04:42:20;;;;;;;31.88;6.63;;;;;;;19.78;100.00;98473.16;5005049;28;20037;-52
2022/06/28 04:44:45;;;;;;;35.20;6.78;;;;;;;20.06;100.00;98465.06;5002437;28;20022;-53
2022/06/28 04:47:11;;;;;;;34.58;7.30;;;;;;;19.99;100.00;98472.59;5004747;28;20503;-53
2022/06/28 04:49:36;;;;;;;34.65;6.97;;;;;;;19.63;100.00;98471.59;5004901;28;20029;-53
2022/06/28 04:52:02;;;;;;;31.80;6.38;;;;;;;19.78;100.00;98474.97;5005380;28;20591;-52
2022/06/28 04:54:28;;;;;;;37.17;7.32;;;;;;;20.24;100.00;98466.34;5003129;28;20044;-54
2022/06/28 04:56:54;;;;;;;29.83;6.78;;;;;;;20.93;100.00;98449.75;5002726;28;20037;-52
2022/06/28 04:59:19;;;;;;;29.55;6.70;;;;;;;21.65;100.00;98446.84;5004933;28;20064;-53
2022/06/28 05:01:45;;;;;;;35.22;6.93;;;;;;;23.20;100.00;98433.22;5003105;28;20408;-52
2022/06/28 05:04:11;;;;;;;25.45;5.65;;;;;;;23.73;100.00;98440.16;5004815;28;20454;-52
2022/06/28 05:06:37;;;;;;;28.42;5.93;;;;;;;23.83;100.00;98442.88;5003760;28;20037;-55
2022/06/28 05:09:02;;;;;;;27.95;6.15;;;;;;;24.93;100.00;98428.50;5002891;28;20025;-52
2022/06/28 05:11:29;;;;;;;28.08;5.88;;;;;;;25.31;100.00;98434.72;5002558;28;20045;-53
2022/06/28 05:13:54;;;;;;;27.58;5.95;;;;;;;26.64;100.00;98425.41;5004996;28;20065;-54
2022/06/28 05:16:20;;;;;;;34.38;6.60;;;;;;;25.99;100.00;98431.78;5002417;28;20045;-54
2022/06/28 05:18:45;;;;;;;37.35;7.47;;;;;;;26.59;100.00;98441.88;5005134;28;20049;-53
2022/06/28 05:21:11;;;;;;;23.05;5.43;;;;;;;27.34;100.00;98436.09;5004375;28;20443;-53
2022/06/28 05:23:37;;;;;;;23.80;5.50;;;;;;;25.98;100.00;98442.63;5003082;28;20060;-53
2022/06/28 05:26:03;;;;;;;24.58;5.93;;;;;;;26.19;100.00;98442.34;5002869;28;20064;-52
2022/06/28 05:28:28;;;;;;;22.17;5.28;;;;;;;26.33;100.00;98445.31;5003804;28;21042;-53
2022/06/28 05:30:54;;;;;;;26.48;6.13;;;;;;;26.19;100.00;98437.81;5002747;28;20065;-54
2022/06/28 05:33:19;;;;;;;22.75;5.30;;;;;;;26.81;100.00;98435.22;5003382;28;20116;-53
2022/06/28 05:35:45;;;;;;;25.50;5.55;;;;;;;24.14;100.00;98442.81;5003513;28;20042;-52
2022/06/28 05:38:10;;;;;;;24.38;5.60;;;;;;;23.99;100.00;98437.88;5004900;28;20025;-53
2022/06/28 05:40:36;;;;;;;20.42;5.40;;;;;;;23.34;100.00;98445.31;5005276;28;20064;-53
2022/06/28 05:43:01;;;;;;;22.90;5.38;;;;;;;23.05;100.00;98448.69;5005701;28;20034;-54
2022/06/28 05:45:27;;;;;;;25.10;5.68;;;;;;;23.22;100.00;98455.22;5001929;28;20120;-53
2022/06/28 05:47:52;;;;;;;21.67;5.60;;;;;;;24.34;100.00;98449.00;5006012;28;20030;-53
2022/06/28 05:50:19;;;;;;;23.55;5.65;;;;;;;24.92;100.00;98449.00;5002288;28;20083;-54
2022/06/28 05:52:45;;;;;;;25.88;5.45;;;;;;;26.53;100.00;98453.19;5006191;28;20511;-53
2022/06/28 05:55:10;;;;;;;26.67;5.28;;;;;;;29.52;98.89;98456.56;5003449;28;20026;-53
2022/06/28 05:57:36;;;;;;;25.58;5.68;;;;;;;28.78;98.82;98459.34;5004966;28;20068;-53
2022/06/28 06:00:02;;;;;;;23.65;5.82;;;;;;;27.63;100.00;98459.03;5007348;28;20099;-52
2022/06/28 06:02:28;;;;;;;23.80;4.85;;;;;;;26.90;100.00;98457.53;5007419;28;20037;-53
2022/06/28 06:04:54;;;;;;;20.42;4.85;;;;;;;26.62;100.00;98459.50;5007762;28;20206;-52
2022/06/28 06:07:20;;;;;;;25.63;5.57;;;;;;;25.39;100.00;98453.56;5006593;28;20701;-55
2022/06/28 06:09:45;;;;;;;19.40;4.85;;;;;;;25.65;100.00;98452.88;5007275;28;20705;-52
2022/06/28 06:12:11;;;;;;;22.58;4.82;;;;;;;27.58;100.00;98446.09;5006975;28;20396;-53
2022/06/28 06:14:36;;;;;;;14.15;3.95;;;;;;;29.54;91.31;98454.56;5006923;28;20030;-55
2022/06/28 06:17:02;;;;;;;20.73;4.88;;;;;;;30.14;83.63;98455.81;5006621;28;20038;-53
2022/06/28 06:19:27;;;;;;;20.10;4.60;;;;;;;31.42;72.31;98448.91;5007437;28;20101;-56
2022/06/28 06:21:52;;;;;;;16.20;4.07;;;;;;;31.62;67.43;98452.75;5006748;28;20373;-56
2022/06/28 06:24:18;;;;;;;19.13;4.78;;;;;;;30.03;75.63;98446.28;5006904;28;20069;-55
2022/06/28 06:26:44;;;;;;;16.20;4.38;;;;;;;29.53;80.51;98448.31;5005113;28;20106;-53
2022/06/28 06:29:09;;;;;;;15.82;4.18;;;;;;;31.32;72.10;98447.31;5006107;28;20598;-54
2022/06/28 06:31:35;;;;;;;14.50;4.43;;;;;;;32.76;56.22;98446.78;5007995;28;20038;-53
2022/06/28 06:34:00;;;;;;;16.65;4.18;;;;;;;34.49;53.24;98451.50;5008959;28;20029;-52
2022/06/28 06:36:26;;;;;;;14.70;4.25;;;;;;;31.10;60.91;98440.13;5006805;28;20692;-52
2022/06/28 06:38:51;;;;;;;14.20;4.00;;;;;;;31.38;61.68;98440.34;5008227;28;20033;-54
2022/06/28 06:41:17;;;;;;;15.38;4.38;;;;;;;31.23;58.30;98440.34;5006775;28;20033;-52
2022/06/28 06:43:42;;;;;;;16.60;4.70;;;;;;;31.68;53.85;98437.66;5008019;28;20022;-52
2022/06/28 06:46:08;;;;;;;14.02;4.03;;;;;;;33.59;48.70;98424.50;5006457;28;20042;-55
2022/06/28 06:48:33;;;;;;;17.35;4.45;;;;;;;32.95;50.68;98414.72;5006530;28;20061;-52
2022/06/28 06:50:59;;;;;;;13.02;3.95;;;;;;;31.36;54.84;98418.16;5006244;28;20143;-53
2022/06/28 06:53:24;;;;;;;11.60;3.45;;;;;;;33.36;49.86;98414.81;5007774;28;20033;-53
2022/06/28 06:55:49;;;;;;;13.73;3.75;;;;;;;30.69;54.39;98409.00;5006347;28;20725;-54
2022/06/28 06:58:15;;;;;;;13.85;3.72;;;;;;;30.27;59.14;98412.19;5008136;28;20033;-54
2022/06/28 07:00:41;;;;;;;17.13;4.35;;;;;;;29.22;70.27;98426.75;5009737;28;20069;-52
2022/06/28 07:03:07;;;;;;;13.70;3.53;;;;;;;32.30;54.07;98425.56;4989685;28;20048;-54
2022/06/28 07:05:32;;;;;;;14.25;3.47;;;;;;;31.70;52.24;98419.44;5007384;28;20045;-53
2022/06/28 07:07:58;;;;;;;13.52;3.50;;;;;;;31.08;58.69;98426.00;5004920;28;20018;-53
2022/06/28 07:10:23;;;;;;;14.48;3.78;;;;;;;32.07;56.84;98415.78;5004149;28;20079;-54
2022/06/28 07:12:49;;;;;;;15.30;3.75;;;;;;;31.96;51.85;98424.31;5006613;28;20510;-53
2022/06/28 07:15:15;;;;;;;11.82;3.58;;;;;;;31.88;52.38;98413.66;5005714;28;20040;-53
2022/06/28 07:17:40;;;;;;;13.50;3.67;;;;;;;31.89;51.50;98408.06;5006057;28;20075;-56
2022/06/28 07:20:06;;;;;;;16.77;4.50;;;;;;;34.40;48.18;98409.41;5006418;28;20036;-54
2022/06/28 07:22:33;;;;;;;14.52;3.83;;;;;;;33.53;49.24;98407.22;5003805;28;20083;-53
2022/06/28 07:24:59;;;;;;;11.98;3.35;;;;;;;32.00;52.51;98411.28;5007963;28;20045;-55
2022/06/28 07:27:25;;;;;;;9.80;3.10;;;;;;;34.17;46.09;98422.28;5004880;28;20680;-54
2022/06/28 07:29:51;;;;;;;13.98;3.83;;;;;;;34.37;45.25;98424.16;5006313;28;20920;-55
2022/06/28 07:32:17;;;;;;;9.13;3.15;;;;;;;33.78;45.10;98428.34;5006136;28;20045;-56
2022/06/28 07:34:43;;;;;;;13.93;3.35;;;;;;;34.38;44.64;98428.56;5007973;28;20435;-53
2022/06/28 07:37:08;;;;;;;12.27;3.47;;;;;;;33.36;44.90;98425.63;5004164;28;20064;-54
2022/06/28 07:39:34;;;;;;;9.02;3.05;;;;;;;33.52;45.57;98429.03;5004249;28;20482;-55
2022/06/28 07:41:59;;;;;;;8.85;2.92;;;;;;;37.11;38.99;98436.81;5005246;28;20045;-54
2022/06/28 07:44:24;;;;;;;9.70;3.05;;;;;;;34.15;41.63;98434.31;5005495;28;20018;-55
2022/06/28 07:46:50;;;;;;;10.35;3.05;;;;;;;35.28;39.59;98430.91;5004644;28;20050;-54
2022/06/28 07:49:15;;;;;;;10.85;3.17;;;;;;;35.81;38.55;98427.22;5006518;28;20171;-55
2022/06/28 07:54:25;;;;;;;10.35;3.10;;;;;;;35.46;39.08;98406.66;5006265;28;20060;-53
2022/06/28 07:56:50;;;;;;;9.48;3.05;;;;;;;34.56;41.38;98398.16;5005237;28;20041;-54
2022/06/28 07:59:15;;;;;;;11.40;3.42;;;;;;;34.42;40.95;98408.16;5004546;28;20033;-54
2022/06/28 08:01:41;;;;;;;10.70;3.25;;;;;;;34.65;42.12;98407.75;5004162;28;20045;-55
2022/06/28 08:04:08;;;;;;;10.27;3.20;;;;;;;35.51;39.77;98401.41;5004966;28;20040;-53
2022/06/28 08:06:33;;;;;;;8.95;2.85;;;;;;;35.91;38.88;98389.56;5003910;28;20045;-55
2022/06/28 08:08:59;;;;;;;9.68;3.17;;;;;;;33.88;41.03;98400.94;5005363;28;20080;-54
2022/06/28 08:11:24;;;;;;;10.02;3.20;;;;;;;33.01;42.25;98400.41;5005780;28;20164;-53
2022/06/28 08:13:52;;;;;;;10.90;3.20;;;;;;;35.74;39.04;98413.66;5004631;28;20056;-53
2022/06/28 08:16:18;;;;;;;10.20;2.97;;;;;;;34.55;39.00;98413.56;5004478;28;20542;-57
2022/06/28 08:18:44;;;;;;;12.82;3.72;;;;;;;33.83;41.98;98415.06;5006204;28;20033;-56
2022/06/28 08:21:10;;;;;;;11.48;3.20;;;;;;;33.01;42.01;98416.63;5002453;28;20448;-53
2022/06/28 08:23:35;;;;;;;10.95;3.13;;;;;;;35.29;37.33;98411.72;5004560;28;20111;-54
2022/06/28 08:26:00;;;;;;;11.63;3.20;;;;;;;34.45;39.92;98425.88;4990597;28;20033;-54
2022/06/28 08:28:26;;;;;;;14.13;3.67;;;;;;;32.77;42.82;98432.25;5005287;28;20036;-54
2022/06/28 08:30:52;;;;;;;11.60;3.15;;;;;;;31.02;45.71;98426.75;5003932;28;20057;-53
2022/06/28 08:33:17;;;;;;;11.48;3.30;;;;;;;33.22;43.50;98424.72;5004249;28;20025;-53
2022/06/28 08:35:43;;;;;;;15.35;3.30;;;;;;;31.65;43.72;98414.63;5003144;28;20641;-54
2022/06/28 08:38:08;;;;;;;16.33;3.92;;;;;;;31.83;46.17;98407.97;5005614;28;20136;-53
2022/06/28 08:40:35;;;;;;;16.70;3.90;;;;;;;33.37;43.00;98411.06;5003198;28;20192;-55
2022/06/28 08:43:01;;;;;;;18.30;3.83;;;;;;;33.80;41.09;98400.06;5005640;28;20071;-54
2022/06/28 08:45:27;;;;;;;14.60;3.40;;;;;;;33.45;39.95;98393.84;5004979;28;20083;-54
2022/06/28 08:47:56;;;;;;;12.40;3.22;;;;;;;32.81;42.66;98382.22;5003527;28;20768;-57
2022/06/28 08:50:33;;;;;;;21.20;4.13;;;;;;;30.23;48.40;98383.97;5002407;28;20044;-55
2022/06/28 08:53:01;;;;;;;16.92;3.95;;;;;;;29.35;48.97;98385.91;5004088;28;20033;-55
2022/06/28 08:55:28;;;;;;;16.88;3.80;;;;;;;32.28;44.54;98384.44;5004810;28;20917;-54
2022/06/28 08:57:55;;;;;;;18.15;4.18;;;;;;;30.07;47.84;98383.06;5003774;28;20041;-55
2022/06/28 09:00:20;;;;;;;19.35;4.15;;;;;;;29.54;51.00;98385.50;5003998;28;20030;-53
2022/06/28 09:02:47;;;;;;;17.50;3.75;;;;;;;30.72;51.30;98386.28;5006566;28;20069;-54
2022/06/28 09:05:13;;;;;;;18.20;3.83;;;;;;;29.73;50.83;98389.59;5007031;28;20025;-54
2022/06/28 09:07:39;;;;;;;19.95;4.13;;;;;;;29.57;51.97;98384.31;5004669;28;20028;-53
2022/06/28 09:10:04;;;;;;;28.35;5.10;;;;;;;30.60;48.52;98371.59;5005441;28;20034;-56
2022/06/28 09:12:33;;;;;;;16.13;3.45;;;;;;;30.29;45.53;98380.53;5004123;28;20579;-54
2022/06/28 09:14:59;;;;;;;19.17;4.13;;;;;;;29.28;47.71;98369.66;5004176;28;20026;-54
2022/06/28 09:17:27;;;;;;;25.25;4.38;;;;;;;30.77;45.21;98375.81;5003177;28;20038;-53
2022/06/28 09:19:59;;;;;;;19.42;4.18;;;;;;;32.56;42.91;98370.13;5004401;28;20061;-53
2022/06/28 09:22:40;;;;;;;16.40;3.53;;;;;;;32.88;45.02;98378.72;5004862;28;20064;-53
2022/06/28 09:25:24;;;;;;;17.15;3.78;;;;;;;31.72;43.51;98371.53;5002760;28;20095;-54
2022/06/28 09:27:55;;;;;;;17.58;3.85;;;;;;;34.87;38.13;98372.31;5002751;28;20037;-53
2022/06/28 09:30:21;;;;;;;18.67;3.75;;;;;;;32.24;42.24;98372.34;5002317;28;20022;-54
2022/06/28 09:32:47;;;;;;;18.95;3.95;;;;;;;31.61;44.73;98364.78;5005239;28;20044;-56
2022/06/28 09:35:12;;;;;;;19.10;3.83;;;;;;;31.09;46.33;98363.03;5007345;28;20364;-53
2022/06/28 09:37:48;;;;;;;15.43;3.78;;;;;;;32.08;44.88;98368.88;5007053;28;20481;-53
2022/06/28 09:40:17;;;;;;;16.02;3.75;;;;;;;32.87;44.14;98360.84;5006423;28;20025;-56
2022/06/28 09:42:45;;;;;;;19.88;4.15;;;;;;;34.00;42.18;98369.50;5008154;28;20026;-53
2022/06/28 09:45:13;;;;;;;17.50;3.58;;;;;;;33.56;42.06;98360.00;5006424;28;20137;-55
2022/06/28 09:47:44;;;;;;;20.20;4.15;;;;;;;34.04;39.83;98367.22;5009097;28;20022;-53
2022/06/28 09:50:11;;;;;;;23.17;4.75;;;;;;;33.91;39.97;98363.47;5009109;28;20047;-54
2022/06/28 09:52:43;;;;;;;17.50;3.95;;;;;;;33.77;39.28;98343.66;5007834;28;20057;-54
2022/06/28 09:55:08;;;;;;;17.25;3.65;;;;;;;33.47;38.32;98335.00;5007648;28;20022;-55
2022/06/28 09:57:34;;;;;;;15.98;3.55;;;;;;;33.58;36.94;98338.97;5008708;28;20022;-53
2022/06/28 10:00:00;;;;;;;24.98;4.88;;;;;;;33.66;36.58;98348.84;5007333;28;20051;-53
2022/06/28 10:02:25;;;;;;;16.73;3.65;;;;;;;30.83;40.34;98336.53;5006658;28;20060;-55
2022/06/28 10:04:51;;;;;;;17.88;3.53;;;;;;;31.93;40.05;98338.41;5008404;28;20047;-53
2022/06/28 10:07:16;;;;;;;13.77;3.08;;;;;;;30.53;40.51;98337.31;5008384;28;20041;-56
2022/06/28 10:09:42;;;;;;;21.98;4.00;;;;;;;31.51;39.19;98335.44;5007162;28;20037;-54
2022/06/28 10:15:01;;;;;;;21.50;4.05;;;;;;;30.82;42.09;98316.81;5006941;28;20065;-55
2022/06/28 10:17:34;;;;;;;21.30;3.72;;;;;;;29.55;46.17;98300.34;5006527;28;20128;-53
2022/06/28 10:20:04;;;;;;;23.70;4.60;;;;;;;30.72;42.21;98319.81;5006134;28;20671;-55
2022/06/28 10:22:30;;;;;;;18.77;3.53;;;;;;;30.58;41.56;98307.16;5008094;28;20041;-53
2022/06/28 10:24:58;;;;;;;25.23;4.40;;;;;;;31.96;40.56;98305.63;5009572;28;20037;-53
2022/06/28 10:27:24;;;;;;;19.50;4.00;;;;;;;30.12;43.34;98310.72;5006638;28;20042;-53
2022/06/28 10:30:17;;;;;;;17.10;3.75;;;;;;;31.98;40.21;98303.59;5006874;28;20576;-55
2022/06/28 10:32:44;;;;;;;22.67;4.28;;;;;;;30.48;44.19;98301.22;5002388;28;20041;-54
2022/06/28 10:35:10;;;;;;;26.77;4.65;;;;;;;30.79;41.71;98303.75;5008440;28;20037;-54
2022/06/28 10:37:35;;;;;;;18.60;3.80;;;;;;;31.62;40.96;98304.44;5005712;28;20033;-56
2022/06/28 10:40:26;;;;;;;28.92;5.13;;;;;;;31.98;40.87;98309.00;5006356;28;20119;-55
2022/06/28 10:42:53;;;;;;;18.85;3.75;;;;;;;29.51;44.59;98310.59;5006268;28;20061;-54
2022/06/28 10:45:23;;;;;;;20.42;4.05;;;;;;;30.14;43.55;98316.78;5004988;28;20025;-54
2022/06/28 10:48:07;;;;;;;24.83;4.18;;;;;;;31.51;42.14;98310.34;5006336;28;20427;-53
2022/06/28 10:51:02;;;;;;;21.25;4.18;;;;;;;30.62;40.91;98303.09;5004637;28;20631;-53
2022/06/28 10:53:32;;;;;;;23.00;4.05;;;;;;;30.73;39.97;98291.88;5006912;28;20030;-55
2022/06/28 10:56:12;;;;;;;21.90;4.25;;;;;;;29.08;44.25;98296.69;5006775;28;20092;-55
2022/06/28 10:58:56;;;;;;;28.52;4.85;;;;;;;30.74;42.11;98281.94;5005880;28;20101;-54
2022/06/28 11:01:39;;;;;;;25.83;4.53;;;;;;;32.57;37.75;98283.53;5006884;28;20088;-54
2022/06/28 11:04:21;;;;;;;20.73;4.18;;;;;;;31.84;40.39;98282.91;5008907;28;20095;-53
2022/06/28 11:06:54;;;;;;;23.45;4.40;;;;;;;30.22;44.59;98288.13;5005865;28;20077;-54
2022/06/28 11:09:38;;;;;;;22.58;4.38;;;;;;;30.71;40.27;98285.84;5006598;28;20072;-55
2022/06/28 11:12:12;;;;;;;26.60;4.63;;;;;;;31.67;38.90;98280.47;5006080;28;20042;-53
2022/06/28 11:14:59;;;;;;;23.80;4.40;;;;;;;31.24;40.98;98299.19;5007247;28;20040;-54
2022/06/28 11:17:40;;;;;;;25.73;4.38;;;;;;;29.81;42.07;98285.75;5006018;28;20447;-53
2022/06/28 11:20:07;;;;;;;36.95;6.13;;;;;;;27.63;46.54;98282.19;5006588;28;20030;-53
2022/06/28 11:22:42;;;;;;;23.80;4.40;;;;;;;29.38;44.96;98289.69;5008798;28;20045;-53
2022/06/28 11:25:13;;;;;;;19.95;4.00;;;;;;;30.00;43.91;98282.59;5004567;28;20022;-54
2022/06/28 11:27:54;;;;;;;22.83;4.07;;;;;;;30.46;42.63;98277.16;5005528;28;21151;-55
2022/06/28 11:30:23;;;;;;;24.85;4.55;;;;;;;29.72;43.06;98274.19;5004353;28;20068;-54
2022/06/28 11:32:50;;;;;;;24.27;4.40;;;;;;;29.93;43.35;98273.56;5006133;28;20099;-55